Tiempo atmosférico en la estación meteorológica de Segovia, Segovia (1005 m.)



Fecha
DESCASC
Temp. máxima en grados centígrados (hora)
DESCASC
Temp. mínima en grados centígrados (hora)
DESCASC
Temp. media en grados centígrados
DESCASC
Racha de viento máxima en m/sg (hora)
DESCASC
Velocidad máxima media en intervalos de 10 minutos(hora)
DESCASC
Precipitaciones diarias en mm
DESCASC
Precipitaciones de 00:00 a 06:00 en mm
DESCASC
Precipitaciones de 06:00 a 12:00 en mm
DESCASC
Precipitaciones de 12:00 a 18:00 en mm
DESCASC
Precipitaciones de 18:00 a 24:00 en mm
DESCASC
23-06-2019 30.1 (16:00) 15.6 (07:10) 22.9 14.17 (16:40) 8.06 (13:40) 0 0 0 0 0
22-06-2019 28.3 (16:50) 11.5 (06:30) 19.9 10 (14:20) 5.83 (20:30) 0 0 0 0 0
21-06-2019 23.4 (19:40) 12.1 (05:20) 17.8 7.78 (02:50) 4.17 (02:50) 0 0 0 0 0
20-06-2019 25.2 (15:50) 13.9 (00:00) 19.6 19.17 (17:00) 9.17 (17:00) 1.4 0 0.4 1 0
19-06-2019 25.5 (16:50) 12.9 (00:00) 19.2 8.61 (16:40) 5 (19:40) 0 0 0 0 0
18-06-2019 27.3 (16:50) 16.9 (00:00) 22.1 15.56 (14:40) 10.83 (14:50) 0 0 0 0 0
17-06-2019 28.5 (18:00) 12.3 (00:00) 20.4 11.67 (13:40) 6.94 (16:40) 0 0 0 0 0
16-06-2019 27.7 (17:40) 9.7 (00:00) 18.7 9.72 (16:40) 6.11 (17:10) 0 0 0 0 0
15-06-2019 22.3 (18:30) 7.6 (00:00) 14.9 8.06 (15:20) 4.72 (01:40) 0 0 0 0 0
14-06-2019 23.5 (16:30) 9.3 (00:00) 16.4 17.22 (15:40) 7.5 (13:20) 0 0 0 0 0
13-06-2019 25 (18:00) 8.4 (00:00) 16.7 14.72 (13:50) 8.06 (12:50) 0 0 0 0 0
12-06-2019 21.8 (17:10) 3.5 (00:00) 12.6 8.61 (15:50) 5.28 (15:50) 0 0 0 0 0
11-06-2019 16.6 (18:00) 7.7 (00:00) 12.2 9.44 (13:40) 4.72 (02:10) 0.2 0 0.2 0 0
10-06-2019 20.9 (19:10) 7.4 (00:00) 14.1 7.22 (19:20) 3.89 (19:40) 0 0 0 0 0
09-06-2019 22.9 (16:50) 10.4 (00:00) 16.6 10.28 (22:10) 5.83 (19:30) 0 0 0 0 0
08-06-2019 24.3 (16:10) 4.7 (00:00) 14.5 11.67 (16:50) 7.78 (16:40) 0 0 0 0 0
07-06-2019 17.1 (17:50) 5.8 (00:00) 11.5 11.39 (00:50) 7.22 (00:40) 6.2 6.2 0 0 0
06-06-2019 19.9 (16:40) 4.9 (00:00) 12.4 16.67 (17:50) 10 (18:30) 0 0 0 0 0
05-06-2019 17.6 (16:40) 6.6 (00:00) 12.1 11.94 (03:10) 6.94 (18:10) 0.8 0.2 0.6 0 0
04-06-2019 24.7 (15:00) 11.8 (00:00) 18.3 13.61 (19:40) 7.78 (19:40) 0 0 0 0 0
03-06-2019 30.7 (16:20) 15.2 (00:00) 23 15.83 (15:50) 9.72 (17:40) 0 0 0 0 0
02-06-2019 30.7 (15:10) 15.8 (00:00) 23.3 13.61 (20:00) 5 (20:00) 0 0 0 0 0
01-06-2019 31.4 (18:10) 16 (00:00) 23.7 7.5 (16:10) 3.61 (15:10) 0 0 0 0 0
31-05-2019 29.8 (17:50) 13.9 (00:00) 21.8 7.78 (18:30) 4.72 (01:00) 0 0 0 0 0
30-05-2019 27.6 (17:50) 7.7 (00:00) 17.7 8.33 (14:30) 3.89 (15:50) 0 0 0 0 0
29-05-2019 21.2 (17:30) 4.2 (00:00) 12.7 8.89 (19:50) 5.28 (00:30) 0 0 0 0 0
28-05-2019 20.2 (16:00) 6.2 (00:00) 13.2 10.83 (18:10) 5.28 (22:40) 0 0 0 0 0
27-05-2019 23.2 (17:50) 9.7 (00:00) 16.5 9.72 (23:00) 5.28 (23:00) 0 0 0 0 0
26-05-2019 21.7 (17:30) 5.1 (00:00) 13.4 10.83 (17:40) 5.28 (17:50) 0 0 0 0 0

Gráficas

Temp. máximas Temp. mínimas Temp. medias Precipitaciones Rachas de viento máximas Velocidades máximas media en intervalos de 10 minutos

Datos horarios

Fecha y hora oficial Temperatura (ºC) Velocidad del viento (km/h) Dirección del viento Racha (km/h) Dirección de racha Precipitación (mm) Presión (hPa) Tendencia (hPa) Humedad (%)
2019-06-24 23:00:00 15.8 5 Nordeste 9 Nordeste 0 903.7 1.5 68
2019-06-24 22:00:00 16.4 6 Noroeste 22 Noroeste 0 904 3 65
2019-06-24 21:00:00 19.4 15 Oeste 32 Oeste 0 903.5 3.1 57
2019-06-24 20:00:00 22.4 23 Oeste 37 Noroeste 0 902.2 1.9 50
2019-06-24 19:00:00 25.3 22 Oeste 57 Sudoeste 0 901 0.5 42
2019-06-24 18:00:00 27.7 27 Sudoeste 45 Sur 0 900.4 -0.2 28
2019-06-24 17:00:00 27.4 16 Sur 33 Sur 0 900.3 -0.7 27
2019-06-24 16:00:00 26.8 19 Sur 31 Sur 0 900.5 -0.6 27
2019-06-24 15:00:00 26.4 18 Sudeste 28 Sudeste 0 900.6 -0.7 28
2019-06-24 14:00:00 24.9 19 Sudoeste 30 Sudoeste 0 901 -0.3 32
2019-06-24 13:00:00 24.4 14 Sudoeste 25 Sudoeste 0 901.1 -0.1 32
2019-06-24 12:00:00 22.3 2 Sudeste 6 Oeste 0 901.3 0.5 38
2019-06-24 11:00:00 20 4 Norte 9 Nordeste 0 901.3 0.7 44
2019-06-24 10:00:00 19.2 4 Sur 6 Sudeste 0 901.2 0.6 45
2019-06-24 09:00:00 18.1 4 Oeste 9 Noroeste 0 900.8 0.5 50
2019-06-24 08:00:00 17.5 5 Oeste 10 Nordeste 0 900.6 0.3 45
2019-06-24 07:00:00 17.4 4 Nordeste 11 Norte 0 900.6 0.3 42
2019-06-24 06:00:00 18 5 Noroeste 21 Sur 0 900.3 -0.4 39
2019-06-24 05:00:00 19.9 5 Sur 10 Sudoeste 0 900.3 -0.7 38
2019-06-24 04:00:00 18.7 6 Este 12 Este 0 900.3 -0.8 40
2019-06-24 03:00:00 18.6 4 Sudeste 9 Sudoeste 0 900.7 -0.6 38
2019-06-24 02:00:00 19.6 3 Este 9 Sudeste 0 901 0 40
2019-06-24 01:00:00 19.5 6 Sudeste 12 Sur 0 901.1 1.1 37
2019-06-24 00:00:00 22.4 2 Sudoeste 9 Noroeste 0 901.3 1.3 29
2019-06-23 23:00:00 23.8 4 Noroeste 8 Noroeste 0 901 1 29
2019-06-23 22:00:00 24.7 3 Oeste 8 Noroeste 0 900 0 28
2019-06-23 21:00:00 26.2 7 Oeste 17 Sudoeste 0 900 -0.2 26
2019-06-23 20:00:00 27.4 14 Sudoeste 24 Sur 0 900 -0.3 24
2019-06-23 19:00:00 27.9 14 Sur 36 Sudoeste 0 900 -0.4 22
2019-06-23 18:00:00 28.8 26 Sudoeste 41 Sur 0 900.2 -0.6 20
2019-06-23 17:00:00 29 16 Sur 51 Sudoeste 0 900.3 -0.7 20
2019-06-23 16:00:00 29.8 17 Sur 35 Sur 0 900.4 -0.9 22
2019-06-23 15:00:00 28.7 22 Sudeste 46 Sudoeste 0 900.8 -0.4 23
2019-06-23 14:00:00 27.9 20 Sudoeste 46 Sudoeste 0 901 0 26
2019-06-23 13:00:00 26.5 22 Sudoeste 41 Sur 0 901.3 0 28
2019-06-23 12:00:00 26.4 24 Sudoeste 37 Sudoeste 0 901.2 -0.2 29
2019-06-23 11:00:00 24.2 5 Oeste 9 Nordeste 0 901 -0.2 27
2019-06-23 10:00:00 21.5 4 Nordeste 10 Nordeste 0 901.3 0.4 32
2019-06-23 09:00:00 19.7 6 Este 10 Este 0 901.4 1 37
2019-06-23 08:00:00 16.6 3 Este 8 Nordeste 0 901.2 1.2 45
2019-06-23 07:00:00 15.7 4 Norte 17 Noroeste 0 900.9 0.9 46
2019-06-23 06:00:00 17.4 4 Este 16 Sudeste 0 900.4 0.1 41
2019-06-23 05:00:00 18.8 11 Sudeste 17 Sudeste 0 900 -0.7 35
2019-06-23 04:00:00 16.4 6 Este 8 Nordeste 0 900 -1.2 47
2019-06-23 03:00:00 17 6 Este 10 Este 0 900.3 -1 45
2019-06-23 02:00:00 18 6 Nordeste 12 Este 0 900.7 -0.3 42
2019-06-23 01:00:00 19.5 5 Nordeste 8 Este 0 901.2 0.7 39
2019-06-23 00:00:00 20.7 5 Este 8 Sudeste 0 901.3 0.9 35
2019-06-22 23:00:00 21.6 5 Sudeste 12 Sur 0 901 0.8 32
2019-06-22 22:00:00 23.1 9 Sur 20 Sur 0 900.5 0.2 28
2019-06-22 21:00:00 25.6 12 Sur 30 Sur 0 900.4 -0.2 23
2019-06-22 20:00:00 27.4 14 Sur 26 Sudoeste 0 900.2 -0.6 21
2019-06-22 19:00:00 27.3 17 Sur 31 Sur 0 900.3 -1 20
2019-06-22 18:00:00 27.3 21 Sudeste 34 Sudeste 0 900.6 -1 22
2019-06-22 17:00:00 27.7 16 Sudeste 33 Sur 0 900.8 -1.3 22
2019-06-22 16:00:00 27.6 15 Sur 33 Sur 0 901.3 -1.2 24
2019-06-22 15:00:00 27.2 14 Sur 36 Sur 0 901.6 -0.9 25
2019-06-22 14:00:00 26.8 12 Sur 31 Sur 0 902.1 -0.7 28
2019-06-22 13:00:00 26.5 12 Sudoeste 31 Sudoeste 0 902.5 -0.5 29
2019-06-22 12:00:00 25 13 Sudoeste 25 Sudoeste 0 902.5 -0.7 30
2019-06-22 11:00:00 22.9 8 Oeste 16 Oeste 0 902.8 -0.1 39
2019-06-22 10:00:00 19.9 3 Oeste 9 Oeste 0 903 0.2 46
2019-06-22 09:00:00 16.4 0 Calma 9 Este 0 903.2 0.3 59
2019-06-22 08:00:00 15.2 8 Este 13 Este 0 902.9 0.1 60
2019-06-22 07:00:00 12.1 7 Este 10 Este 0 902.8 -0.3 68
2019-06-22 06:00:00 11.8 3 Oeste 9 Oeste 0 902.9 -1 68
2019-06-22 05:00:00 12.9 4 Norte 10 Sudeste 0 902.8 -1.6 64
2019-06-22 04:00:00 14.3 7 Este 18 Este 0 903.1 -1.2 59
2019-06-22 03:00:00 13.6 6 Este 17 Este 0 903.9 -0.5 62
2019-06-22 02:00:00 13.8 8 Este 18 Este 0 904.4 0.1 63
2019-06-22 01:00:00 14.9 9 Este 23 Este 0 904.3 0.6 60
2019-06-22 00:00:00 15.8 12 Nordeste 27 Nordeste 0 904.4 1.2 57
2019-06-21 23:00:00 17.2 10 Nordeste 25 Nordeste 0 904.3 1.6 52
2019-06-21 22:00:00 19.2 10 Norte 21 Nordeste 0 903.7 1.3 44
2019-06-21 21:00:00 21.1 12 Norte 26 Norte 0 903.2 0.6 38
2019-06-21 20:00:00 22.4 12 Noroeste 20 Sudoeste 0 902.7 -0.3 32
2019-06-21 19:00:00 23 3 Sur 24 Noroeste 0 902.4 -1.2 32
2019-06-21 18:00:00 22.5 9 Noroeste 17 Noroeste 0 902.6 -1.4 34
2019-06-21 17:00:00 21.7 5 Sudoeste 19 Norte 0 903 -1.4 42
2019-06-21 16:00:00 20.1 8 Este 20 Este 0 903.6 -0.9 49
2019-06-21 15:00:00 18.4 6 Nordeste 14 Noroeste 0 904 -0.5 58
2019-06-21 14:00:00 16.8 4 Norte 15 Este 0 904.4 0.2 67
2019-06-21 13:00:00 14 5 Norte 13 Oeste 0 904.5 0.7 83
2019-06-21 12:00:00 12.2 8 Noroeste 16 Noroeste 0 904.5 1.3 94
2019-06-21 11:00:00 12.5 6 Oeste 12 Noroeste 0 904.2 1.5 90
2019-06-21 10:00:00 12.3 8 Oeste 12 Oeste 0 903.8 1.5 91
2019-06-21 09:00:00 12.4 5 Noroeste 9 Noroeste 0 903.2 1.1 90
2019-06-21 08:00:00 12.2 5 Oeste 9 Oeste 0 902.7 0.8 91
2019-06-21 07:00:00 12.2 9 Oeste 12 Oeste 0 902.3 0.4 92
2019-06-21 06:00:00 12.4 5 Sudoeste 8 Sudoeste 0 902.1 -0.4 92
2019-06-21 05:00:00 12.4 5 Noroeste 15 Nordeste 0 901.9 -0.8 90
2019-06-21 04:00:00 12.6 10 Nordeste 23 Nordeste 0 901.9 -0.5 90
2019-06-21 03:00:00 12.6 14 Nordeste 28 Nordeste 0 902.5 0.7 90
2019-06-21 02:00:00 13.3 9 Norte 24 Norte 0 902.7 1.4 91
2019-06-21 01:00:00 13.2 8 Norte 22 Norte 0 902.4 1.7 88
2019-06-21 00:00:00 15.6 13 Noroeste 24 Noroeste 0 901.8 1.8 79
2019-06-20 23:00:00 16.4 12 Este 19 Este 0 901.3 1.8 74
2019-06-20 22:00:00 17.1 7 Noroeste 21 Oeste 0 900.7 1 68
2019-06-20 21:00:00 19 10 Oeste 24 Oeste 0 900 0.4 58
2019-06-20 20:00:00 20 8 Sudoeste 14 Sur 0 899.5 -0.2 49
2019-06-20 19:00:00 20 9 Sudoeste 15 Oeste 0 899.7 0.1 49
2019-06-20 18:00:00 20.3 7 Noroeste 36 Oeste 0.6 899.6 -0.9 55
2019-06-20 17:00:00 19 33 Oeste 69 Oeste 0.4 899.7 -1.3 65
2019-06-20 16:00:00 24.7 7 Sudeste 19 Oeste 0 899.6 -1.5 35
2019-06-20 15:00:00 22.9 6 Sudoeste 19 Norte 0 900.5 -0.8 40
2019-06-20 14:00:00 21.6 10 Noroeste 18 Noroeste 0 901 -0.5 45
2019-06-20 13:00:00 21.8 8 Oeste 15 Oeste 0 901.1 -0.6 44
2019-06-20 12:00:00 21 4 Este 14 Nordeste 0 901.3 -0.5 47
2019-06-20 11:00:00 20 4 Norte 12 Norte 0.4 901.5 -0.4 50
2019-06-20 10:00:00 18.3 4 Sudoeste 11 Sudoeste 0 901.7 -0.2 54
2019-06-20 09:00:00 16.2 5 Sudoeste 9 Oeste 0 901.8 -0.1 61
2019-06-20 08:00:00 14.7 5 Sur 8 Sur 0 901.9 -0.1 67
2019-06-20 07:00:00 13.9 4 Sur 6 Sur 0 901.9 -0.1 69
2019-06-20 06:00:00 14.8 6 Sudoeste 9 Sudoeste 0 901.9 -0.3 65
2019-06-20 05:00:00 15.5 6 Oeste 11 Sudoeste 0 902 -0.5 64
2019-06-20 04:00:00 16.1 6 Sudoeste 8 Sudoeste 0 902 -0.6 61
2019-06-20 03:00:00 16.6 7 Sudoeste 10 Sudoeste 0 902.2 -0.3 60
2019-06-20 02:00:00 17.2 3 Oeste 5 Noroeste 0 902.5 0.1 59
2019-06-20 01:00:00 18.1 0 Calma 6 Noroeste 0 902.6 0.5 55
2019-06-20 00:00:00 18.5 4 Norte 10 Noroeste 0 902.5 0.7 54
2019-06-19 23:00:00 19.2 8 Noroeste 15 Noroeste 0 902.4 1 51
2019-06-19 22:00:00 20.2 11 Oeste 22 Oeste 0 902.1 1 45
2019-06-19 21:00:00 21.2 12 Oeste 27 Oeste 0 901.8 0.8 43
2019-06-19 20:00:00 22.2 13 Oeste 29 Oeste 0 901.4 0.4 41
2019-06-19 19:00:00 22.9 12 Noroeste 27 Oeste 0 901.1 -0.1 39
2019-06-19 18:00:00 23.6 11 Oeste 26 Oeste 0 901 -0.5 36
2019-06-19 17:00:00 24.6 13 Oeste 31 Oeste 0 901 -0.9 33
2019-06-19 16:00:00 25.4 15 Oeste 29 Noroeste 0 901.2 -1.1 32
2019-06-19 15:00:00 23.8 8 Noroeste 27 Oeste 0 901.5 -0.8 35
2019-06-19 14:00:00 22.1 9 Oeste 23 Noroeste 0 901.9 -0.5 40
2019-06-19 13:00:00 20 9 Noroeste 20 Noroeste 0 902.3 0 46
2019-06-19 12:00:00 20.4 8 Oeste 17 Sudoeste 0 902.3 0.3 47
2019-06-19 11:00:00 18.5 8 Noroeste 18 Noroeste 0 902.4 0.5 53
2019-06-19 10:00:00 17.3 8 Noroeste 13 Noroeste 0 902.3 0.4 57
2019-06-19 09:00:00 16.4 5 Sur 14 Este 0 902 0.2 62
2019-06-19 08:00:00 14.7 2 Nordeste 10 Sudeste 0 901.9 0.2 68
2019-06-19 07:00:00 13.7 4 Este 7 Sudeste 0 901.9 0.3 71
2019-06-19 06:00:00 13.2 8 Sudeste 11 Sur 0 901.8 0.3 72
2019-06-19 05:00:00 13.2 7 Sur 9 Sur 0 901.7 0.2 69
2019-06-19 04:00:00 14.4 5 Sudeste 9 Sudeste 0 901.6 0 61
2019-06-19 03:00:00 15.5 2 Norte 13 Oeste 0 901.5 -0.2 59
2019-06-19 02:00:00 16.2 9 Noroeste 13 Oeste 0 901.5 0 56
2019-06-19 01:00:00 16.6 4 Oeste 16 Oeste 0 901.6 0.5 52
2019-06-19 00:00:00 18.2 13 Sudoeste 21 Sudoeste 0 901.7 0.9 47
2019-06-18 23:00:00 19 12 Sur 29 Sur 0 901.5 1.1 45
2019-06-18 22:00:00 20.1 21 Sudoeste 39 Sudoeste 0 901.1 1 41
2019-06-18 21:00:00 22.1 24 Sudoeste 49 Sudoeste 0 900.8 0.9 33
2019-06-18 20:00:00 24.2 32 Sudoeste 44 Sudoeste 0 900.4 0.4 26
2019-06-18 19:00:00 25.6 28 Sudoeste 55 Sudoeste 0 900.1 -0.1 20
2019-06-18 18:00:00 26.6 31 Sudoeste 49 Sudoeste 0 899.9 -0.3 16
2019-06-18 17:00:00 27.2 23 Sudoeste 50 Sudoeste 0 900 -0.3 13
2019-06-18 16:00:00 26.4 28 Sudoeste 53 Sudoeste 0 900.2 -0.5 14
2019-06-18 15:00:00 26.3 38 Sudoeste 56 Sudoeste 0 900.2 -0.7 16
2019-06-18 14:00:00 25.9 37 Sudoeste 51 Sudoeste 0 900.3 -0.4 17
2019-06-18 13:00:00 25.4 30 Sudoeste 51 Sudoeste 0 900.7 -0.1 14
2019-06-18 12:00:00 24.8 22 Sur 35 Sudoeste 0 900.9 0.2 13
2019-06-18 11:00:00 23.6 18 Sur 31 Sur 0 900.7 0.3 15
2019-06-18 10:00:00 22.9 15 Sudoeste 26 Sudoeste 0 900.8 0.8 15
2019-06-18 09:00:00 22.5 17 Sur 32 Sur 0 900.7 0.7 19
2019-06-18 08:00:00 20.5 9 Sudoeste 27 Sur 0 900.4 0.5 26
2019-06-18 07:00:00 17.3 9 Sur 18 Sudeste 0 900 -0.2 28
2019-06-18 06:00:00 18.1 12 Sudeste 18 Sudeste 0 900 -0.5 27
2019-06-18 05:00:00 17.1 14 Sur 22 Sur 0 899.9 -1.8 31
2019-06-18 04:00:00 17.7 16 Sur 20 Sur 0 900.2 -2.2 31
2019-06-18 03:00:00 19.4 12 Este 22 Este 0 900.5 -1.8 31
2019-06-18 02:00:00 19.3 9 Este 15 Este 0 901.7 -0.6 32
2019-06-18 01:00:00 19.8 5 Nordeste 8 Este 0 902.4 0.7 33
2019-06-18 00:00:00 20.9 5 Este 13 Nordeste 0 902.3 1 31
2019-06-17 23:00:00 21.6 4 Nordeste 10 Oeste 0 902.3 1.1 25
2019-06-17 22:00:00 22.7 5 Oeste 21 Oeste 0 901.7 0.7 25
2019-06-17 21:00:00 25 14 Sudoeste 25 Sudoeste 0 901.3 -0.1 19
2019-06-17 20:00:00 26.5 19 Sudoeste 40 Sur 0 901.2 -0.5 18
2019-06-17 19:00:00 26.6 16 Sudoeste 32 Sudoeste 0 901 -1.2 17
2019-06-17 18:00:00 28.4 14 Sudoeste 39 Sudoeste 0 901.4 -1.2 14
2019-06-17 17:00:00 27.5 23 Sur 39 Sur 0 901.7 -1.2 15
2019-06-17 16:00:00 27.9 21 Sudoeste 38 Sudoeste 0 902.2 -1.3 16
2019-06-17 15:00:00 27.3 17 Sur 33 Sur 0 902.6 -1.1 17
2019-06-17 14:00:00 26.6 15 Sudeste 42 Sur 0 902.9 -1.1 19
2019-06-17 13:00:00 26.5 12 Sudoeste 31 Sudoeste 0 903.5 -0.7 19
2019-06-17 12:00:00 25.5 5 Sudoeste 15 Oeste 0 903.7 -0.5 23
2019-06-17 11:00:00 23 6 Oeste 12 Oeste 0 904 0 28
2019-06-17 10:00:00 20.8 7 Oeste 14 Oeste 0 904.2 0.3 28
2019-06-17 09:00:00 19.5 4 Nordeste 10 Este 0 904.2 0.4 31
2019-06-17 08:00:00 15.5 7 Este 9 Este 0 904 0.3 37
2019-06-17 07:00:00 12.5 7 Este 9 Este 0 903.9 0.1 44
2019-06-17 06:00:00 13.2 4 Este 9 Nordeste 0 903.8 -0.2 42
2019-06-17 05:00:00 14.5 5 Este 11 Este 0 903.7 -0.7 40
2019-06-17 04:00:00 14.6 6 Este 10 Nordeste 0 903.8 -0.9 40
2019-06-17 03:00:00 15.1 6 Este 11 Sudeste 0 904 -0.7 38
2019-06-17 02:00:00 15.9 5 Este 13 Sudeste 0 904.4 -0.1 35
2019-06-17 01:00:00 17 6 Este 13 Sudeste 0 904.7 1.1 32
2019-06-17 00:00:00 17.8 10 Sur 22 Sudoeste 0 904.7 1.7 27
2019-06-16 23:00:00 20.7 15 Sudoeste 22 Sudoeste 0 904.5 1.4 22
2019-06-16 22:00:00 21.8 12 Sudoeste 23 Sudoeste 0 903.6 0.5 21
2019-06-16 21:00:00 24.3 8 Sudeste 23 Sudeste 0 903 0 18
2019-06-16 20:00:00 25.4 15 Sur 26 Sudeste 0 903.1 -0.1 17
2019-06-16 19:00:00 25.6 15 Sur 30 Sur 0 903.1 -0.6 16
2019-06-16 18:00:00 26 14 Sur 35 Sudoeste 0 903 -1.1 18
2019-06-16 17:00:00 26.8 12 Sudoeste 35 Sudoeste 0 903.2 -1.3 18
2019-06-16 16:00:00 26.3 15 Sudoeste 33 Sudoeste 0 903.7 -0.9 19
2019-06-16 15:00:00 26.1 12 Sur 28 Sur 0 904.1 -0.7 17
2019-06-16 14:00:00 25.2 10 Sur 29 Sur 0 904.5 -0.5 19
2019-06-16 13:00:00 24 9 Norte 20 Sudoeste 0 904.6 -0.6 19
2019-06-16 12:00:00 23.8 6 Este 17 Este 0 904.8 -0.3 20
2019-06-16 11:00:00 21.5 7 Noroeste 13 Noroeste 0 905 0.4 24
2019-06-16 10:00:00 19.2 4 Oeste 9 Nordeste 0 905.2 0.9 32
2019-06-16 09:00:00 15.9 4 Este 9 Este 0 905.1 0.8 41
2019-06-16 08:00:00 12.1 3 Nordeste 8 Sudeste 0 904.6 0.2 49
2019-06-16 07:00:00 9.8 6 Este 8 Este 0 904.3 -0.5 55
2019-06-16 06:00:00 10.5 6 Este 11 Este 0 904.3 -1 52
2019-06-16 05:00:00 11.5 8 Este 17 Este 0 904.4 -1.4 48
2019-06-16 04:00:00 11.9 7 Nordeste 12 Este 0 904.8 -1.4 45
2019-06-16 03:00:00 12.1 5 Este 16 Este 0 905.3 -0.7 43
2019-06-16 02:00:00 12 5 Este 9 Este 0 905.8 0 43
2019-06-16 01:00:00 13.1 4 Este 16 Este 0 906.2 1.1 40
2019-06-16 00:00:00 14.4 4 Este 17 Este 0 906 1.1 37
2019-06-15 23:00:00 16.4 5 Este 9 Este 0 905.8 1.2 31
2019-06-15 22:00:00 18.3 4 Noroeste 15 Noroeste 0 905.1 0.6 25
2019-06-15 21:00:00 20.5 8 Noroeste 22 Noroeste 0 904.9 0.3 23
2019-06-15 20:00:00 21.3 9 Noroeste 23 Noroeste 0 904.6 -0.3 22
2019-06-15 19:00:00 22 7 Oeste 23 Oeste 0 904.5 -0.4 22
2019-06-15 18:00:00 21.5 9 Oeste 24 Oeste 0 904.6 -0.7 24
2019-06-15 17:00:00 21.5 11 Oeste 24 Noroeste 0 904.9 -0.7 24
2019-06-15 16:00:00 20.7 8 Noroeste 29 Oeste 0 904.9 -0.9 27
2019-06-15 15:00:00 19.4 9 Oeste 21 Oeste 0 905.3 -0.7 31
2019-06-15 14:00:00 17.9 6 Noroeste 21 Oeste 0 905.6 -0.3 38
2019-06-15 13:00:00 17 9 Sudoeste 17 Oeste 0 905.8 -0.1 39
2019-06-15 12:00:00 14.8 7 Noroeste 19 Noroeste 0 906 0.5 44
2019-06-15 11:00:00 13.5 7 Oeste 18 Oeste 0 905.9 0.7 51
2019-06-15 10:00:00 11.6 8 Oeste 14 Noroeste 0 905.9 1 61
2019-06-15 09:00:00 10 6 Oeste 9 Sudoeste 0 905.5 0.8 68
2019-06-15 08:00:00 9.2 4 Sur 8 Sur 0 905.2 0.7 70
2019-06-15 07:00:00 7.6 4 Sur 11 Sudoeste 0 904.9 0.4 74
2019-06-15 06:00:00 8.3 7 Sudoeste 12 Sudoeste 0 904.7 0.5 70
2019-06-15 05:00:00 8.8 8 Sudoeste 15 Oeste 0 904.5 0.4 68
2019-06-15 04:00:00 10.5 8 Oeste 13 Oeste 0 904.5 0.6 61
2019-06-15 03:00:00 11 12 Oeste 18 Sudoeste 0 904.2 1 57
2019-06-15 02:00:00 11.5 16 Sudoeste 25 Oeste 0 904.1 1.7 54
2019-06-15 01:00:00 12.6 15 Oeste 24 Oeste 0 903.9 2.5 48
2019-06-15 00:00:00 13.6 17 Oeste 31 Oeste 0 903.2 2.9 43
2019-06-14 23:00:00 15 12 Oeste 30 Oeste 0 902.4 3.2 41
2019-06-14 22:00:00 15.9 17 Oeste 38 Sudoeste 0 901.4 2.9 38
2019-06-14 21:00:00 18 19 Oeste 37 Noroeste 0 900.3 2.1 31
2019-06-14 20:00:00 19.5 23 Noroeste 43 Oeste 0 899.2 1.1 26
2019-06-14 19:00:00 21.7 22 Oeste 41 Oeste 0 898.5 0.4 21
2019-06-14 18:00:00 22.6 22 Oeste 36 Oeste 0 898.2 0 22
2019-06-14 17:00:00 22.1 15 Oeste 44 Sudoeste 0 898.1 -0.1 24
2019-06-14 16:00:00 22.8 21 Sur 62 Sur 0 898.1 0.4 20
2019-06-14 15:00:00 22.3 21 Sur 40 Sudoeste 0 898.2 0.2 22
2019-06-14 14:00:00 22 26 Sudoeste 48 Sudoeste 0 898.2 0 21
2019-06-14 13:00:00 21.8 26 Sudoeste 39 Sudoeste 0 897.7 -0.7 20
2019-06-14 12:00:00 20.8 18 Sudoeste 31 Sudoeste 0 898 -0.1 19
2019-06-14 11:00:00 17.9 14 Oeste 24 Oeste 0 898.2 0.9 31
2019-06-14 10:00:00 15 10 Oeste 19 Sudoeste 0 898.4 1.1 41
2019-06-14 09:00:00 13 14 Oeste 19 Oeste 0 898.1 0.8 42
2019-06-14 08:00:00 12.1 4 Nordeste 12 Sudeste 0 897.3 0.2 43
2019-06-14 07:00:00 9.4 4 Sudeste 9 Sur 0 897.3 -0.1 45
2019-06-14 06:00:00 10 3 Sudeste 7 Este 0 897.3 -0.4 42
2019-06-14 05:00:00 10.3 4 Este 8 Este 0 897.1 -0.5 41
2019-06-14 04:00:00 11 4 Este 8 Sur 0 897.4 -0.8 39
2019-06-14 03:00:00 11.7 3 Sudeste 11 Este 0 897.7 -0.7 34
2019-06-14 02:00:00 12.4 8 Este 15 Este 0 897.6 -0.4 34
2019-06-14 01:00:00 13.4 6 Este 15 Este 0 898.2 1.2 35
2019-06-14 00:00:00 14.4 6 Este 13 Sudeste 0 898.4 2.1 36
2019-06-13 23:00:00 15.8 6 Sur 15 Sudoeste 0 898 2.3 27
2019-06-13 22:00:00 18.2 11 Sudoeste 24 Sudoeste 0 897 1.6 26
2019-06-13 21:00:00 20.7 14 Sudoeste 31 Sudoeste 0 896.3 0.8 22
2019-06-13 20:00:00 22.4 18 Sudoeste 31 Sur 0 895.7 0 20
2019-06-13 19:00:00 23.3 22 Sur 40 Sur 0 895.4 -0.5 20
2019-06-13 18:00:00 24.6 27 Sudoeste 42 Sudoeste 0 895.5 -0.7 17
2019-06-13 17:00:00 24 28 Sudoeste 49 Sudoeste 0 895.7 -1 17
2019-06-13 16:00:00 24.2 27 Sudoeste 42 Sudoeste 0 895.9 -1 19
2019-06-13 15:00:00 23.4 19 Sur 41 Sur 0 896.2 -0.8 24
2019-06-13 14:00:00 21.9 22 Sur 53 Sur 0 896.7 0 28
2019-06-13 13:00:00 21.5 22 Sur 45 Sur 0 896.9 0.4 29
2019-06-13 12:00:00 20.4 25 Sur 44 Sur 0 897 0.7 30
2019-06-13 11:00:00 20.1 22 Sudoeste 41 Sur 0 896.7 0.6 27
2019-06-13 10:00:00 18.8 23 Sur 36 Sur 0 896.5 0.2 29
2019-06-13 09:00:00 17 19 Sur 28 Sur 0 896.3 0.3 31
2019-06-13 08:00:00 11.4 3 Este 10 Nordeste 0 896.1 0.6 50
2019-06-13 07:00:00 8.6 4 Nordeste 12 Noroeste 0 896.3 0.8 49
2019-06-13 06:00:00 9.5 10 Noroeste 17 Sur 0 896 0.1 54
2019-06-13 05:00:00 12.8 14 Sur 32 Sudeste 0 895.5 -1.1 51
2019-06-13 04:00:00 10.6 13 Sur 17 Sur 0 895.5 -1.5 36
2019-06-13 03:00:00 9.9 6 Este 10 Este 0 895.9 -1.4 43
2019-06-13 02:00:00 10.2 6 Este 9 Este 0 896.6 -0.7 42
2019-06-13 01:00:00 11.1 4 Nordeste 14 Sudeste 0 897 0 42
2019-06-13 00:00:00 12.6 8 Nordeste 12 Este 0 897.3 0.6 39
2019-06-12 23:00:00 15.2 9 Este 14 Este 0 897.3 0.7 33
2019-06-12 22:00:00 17.5 3 Noroeste 16 Noroeste 0 897 0.4 24
2019-06-12 21:00:00 19.6 13 Oeste 21 Oeste 0 896.7 -0.4 22
2019-06-12 20:00:00 19.7 15 Sur 22 Sudoeste 0 896.6 -0.7 22
2019-06-12 19:00:00 21.1 5 Sudeste 24 Sudoeste 0 896.6 -1.4 21
2019-06-12 18:00:00 20 13 Sudoeste 30 Sudoeste 0 897.1 -1.6 23
2019-06-12 17:00:00 21.6 13 Sudoeste 28 Sudoeste 0 897.3 -2 22
2019-06-12 16:00:00 19.6 14 Sur 31 Sudoeste 0 898 -1.6 25
2019-06-12 15:00:00 19.2 14 Sur 24 Este 0 898.7 -1.6 28
2019-06-12 14:00:00 18.1 6 Noroeste 27 Oeste 0 899.3 -1.2 32
2019-06-12 13:00:00 16.7 8 Sudoeste 25 Oeste 0 899.6 -1.1 34
2019-06-12 12:00:00 14.6 5 Norte 13 Noroeste 0 900.3 -0.6 42
2019-06-12 11:00:00 12.8 4 Norte 10 Norte 0 900.5 -0.2 47
2019-06-12 10:00:00 10.2 5 Noroeste 9 Norte 0 900.7 0.3 55
2019-06-12 09:00:00 8 3 Sudoeste 7 Sudoeste 0 900.9 0.5 61
2019-06-12 08:00:00 5.8 2 Sudoeste 8 Sudoeste 0 900.7 0.2 68
2019-06-12 07:00:00 3.7 6 Sur 10 Sur 0 900.4 -0.3 74
2019-06-12 06:00:00 3.9 8 Sudeste 12 Sur 0 900.4 -0.1 73
2019-06-12 05:00:00 4.2 10 Sur 12 Sur 0 900.5 -0.2 70
2019-06-12 04:00:00 5.8 4 Sur 8 Sudoeste 0 900.7 -0.4 63
2019-06-12 03:00:00 6 4 Sur 11 Sur 0 900.5 -0.5 63
2019-06-12 02:00:00 6.9 5 Sudeste 13 Sudeste 0 900.7 -0.2 59
2019-06-12 01:00:00 7.8 3 Este 11 Nordeste 0 901.1 0.4 58
2019-06-12 00:00:00 8.9 5 Este 20 Oeste 0 901 0.4 51
2019-06-11 23:00:00 11.2 7 Nordeste 15 Nordeste 0 900.9 0.4 44
2019-06-11 22:00:00 13 10 Nordeste 19 Nordeste 0 900.7 0.6 37
2019-06-11 21:00:00 14.7 10 Nordeste 22 Noroeste 0 900.6 0.4 32
2019-06-11 20:00:00 15.9 15 Noroeste 26 Noroeste 0 900.5 0.1 29
2019-06-11 19:00:00 15.9 12 Norte 28 Noroeste 0 900.1 -0.4 28
2019-06-11 18:00:00 16.4 15 Norte 32 Nordeste 0 900.2 -0.5 27
2019-06-11 17:00:00 15.9 13 Noroeste 31 Norte 0 900.4 -0.5 29
2019-06-11 16:00:00 14.5 14 Noroeste 30 Noroeste 0 900.5 -0.3 33
2019-06-11 15:00:00 13.3 13 Norte 34 Norte 0 900.7 0 41
2019-06-11 14:00:00 12.9 13 Norte 34 Nordeste 0 900.9 0.3 45
2019-06-11 13:00:00 12.1 12 Norte 26 Norte 0 900.8 0.4 54
2019-06-11 12:00:00 12.2 8 Nordeste 19 Norte 0 900.7 0.6 60
2019-06-11 11:00:00 9.4 8 Nordeste 17 Norte 0 900.6 0.7 72
2019-06-11 10:00:00 8.3 8 Norte 18 Norte 0 900.4 0.7 80
2019-06-11 09:00:00 7.7 6 Noroeste 12 Norte 0.2 900.1 0.6 85
2019-06-11 08:00:00 8 5 Noroeste 14 Norte 0 899.9 0.4 82
2019-06-11 07:00:00 8.1 8 Norte 15 Norte 0 899.7 -0.1 80
2019-06-11 06:00:00 8.8 6 Noroeste 14 Noroeste 0 899.5 -0.3 76
2019-06-11 05:00:00 9.5 4 Nordeste 15 Norte 0 899.5 -0.6 74
2019-06-11 04:00:00 10.7 7 Noroeste 21 Noroeste 0 899.8 -0.4 68
2019-06-11 03:00:00 13 14 Sudoeste 24 Sudoeste 0 899.8 -0.6 45
2019-06-11 02:00:00 13.8 16 Sudoeste 23 Sudoeste 0 900.1 -0.2 39
2019-06-11 01:00:00 13.6 10 Sudoeste 15 Sudoeste 0 900.2 0.2 36
2019-06-11 00:00:00 14.1 9 Sudoeste 20 Oeste 0 900.4 0.2 37
2019-06-10 23:00:00 16.1 3 Noroeste 9 Noroeste 0 900.3 0 29
2019-06-10 22:00:00 17 4 Norte 13 Oeste 0 900 -0.6 28
2019-06-10 21:00:00 19.2 9 Oeste 23 Oeste 0 900.2 -1 24
2019-06-10 20:00:00 20.4 10 Oeste 26 Sudoeste 0 900.3 -1.5 22
2019-06-10 19:00:00 20.7 9 Oeste 24 Oeste 0 900.6 -1.7 23
2019-06-10 18:00:00 20.5 13 Oeste 24 Oeste 0 901.2 -1.5 28
2019-06-10 17:00:00 20.4 10 Oeste 25 Oeste 0 901.8 -1.5 23
2019-06-10 16:00:00 20 11 Sudoeste 22 Noroeste 0 902.3 -1.7 27
2019-06-10 15:00:00 18.9 7 Sudoeste 21 Oeste 0 902.7 -1.6 35
2019-06-10 14:00:00 18 7 Sudoeste 21 Sudoeste 0 903.3 -1.2 40
2019-06-10 13:00:00 16.6 5 Noroeste 17 Norte 0 904 -0.5 47
2019-06-10 12:00:00 14.3 5 Noroeste 14 Noroeste 0 904.3 0 58
2019-06-10 11:00:00 12.1 5 Noroeste 13 Nordeste 0 904.5 0.6 70
2019-06-10 10:00:00 9.8 3 Nordeste 10 Noroeste 0 904.5 0.8 83
2019-06-10 09:00:00 8.8 6 Noroeste 10 Sudoeste 0 904.3 0.5 90
2019-06-10 08:00:00 8.7 5 Oeste 10 Noroeste 0 903.9 0.3 92
2019-06-10 07:00:00 8.4 4 Sudoeste 9 Sudoeste 0 903.7 -0.5 92
2019-06-10 06:00:00 7.7 4 Oeste 10 Sudeste 0 903.8 -0.6 93
2019-06-10 05:00:00 8.4 6 Nordeste 13 Nordeste 0 903.6 -0.9 91
2019-06-10 04:00:00 9.1 8 Norte 13 Nordeste 0 904.2 -0.2 88
2019-06-10 03:00:00 10.4 6 Norte 11 Nordeste 0 904.4 0.1 83
2019-06-10 02:00:00 12.2 7 Norte 11 Norte 0 904.5 0.6 74
2019-06-10 01:00:00 13.7 9 Nordeste 22 Oeste 0 904.4 1.5 62
2019-06-10 00:00:00 14.7 6 Oeste 14 Noroeste 0 904.3 2.2 45
2019-06-09 23:00:00 15.9 8 Oeste 37 Noroeste 0 903.9 2.2 39
2019-06-09 22:00:00 17.7 19 Noroeste 33 Noroeste 0 902.9 1.6 34
2019-06-09 21:00:00 19.6 18 Noroeste 34 Oeste 0 902.1 0.6 28
2019-06-09 20:00:00 21.6 17 Oeste 36 Oeste 0 901.7 0 25
2019-06-09 19:00:00 22.3 18 Oeste 30 Oeste 0 901.3 -0.8 26
2019-06-09 18:00:00 22.3 9 Oeste 31 Oeste 0 901.5 -0.9 27
2019-06-09 17:00:00 21.8 13 Oeste 29 Oeste 0 901.7 -1 26
2019-06-09 16:00:00 22.1 11 Oeste 30 Oeste 0 902.1 -1 24
2019-06-09 15:00:00 21.5 16 Oeste 33 Oeste 0 902.4 -0.9 27
2019-06-09 14:00:00 21.3 17 Oeste 27 Oeste 0 902.7 -0.8 29
2019-06-09 13:00:00 20.2 9 Oeste 24 Oeste 0 903.1 -0.3 35
2019-06-09 12:00:00 18.3 11 Oeste 22 Sudoeste 0 903.3 0.2 43
2019-06-09 11:00:00 16.3 12 Oeste 21 Oeste 0 903.5 0.4 49
2019-06-09 10:00:00 15.1 9 Oeste 19 Oeste 0 903.4 0.5 50
2019-06-09 09:00:00 14.5 7 Oeste 11 Noroeste 0 903.1 0.2 49
2019-06-09 08:00:00 11.5 4 Este 5 Este 0 903.1 -0.1 59
2019-06-09 07:00:00 10.5 4 Este 11 Sudeste 0 902.9 -0.6 61
2019-06-09 06:00:00 11 7 Sudeste 12 Sudeste 0 902.9 -0.6 56
2019-06-09 05:00:00 11.8 8 Sudeste 19 Sur 0 903.2 0 52
2019-06-09 04:00:00 13.1 9 Sudoeste 27 Sudoeste 0 903.5 0.1 47
2019-06-09 03:00:00 14.9 17 Sudoeste 26 Sudoeste 0 903.5 -0.3 38
2019-06-09 02:00:00 15.5 8 Sudeste 11 Sudeste 0 903.2 -0.8 36
2019-06-09 01:00:00 17 5 Sudoeste 14 Sudoeste 0 903.4 0.2 32
2019-06-09 00:00:00 17.3 9 Sudoeste 12 Sudoeste 0 903.8 1.1 30
2019-06-08 23:00:00 17.7 3 Sudoeste 17 Sudoeste 0 904 1.5 29
2019-06-08 22:00:00 19.1 14 Sudoeste 23 Sudoeste 0 903.2 0.8 25
2019-06-08 21:00:00 20.6 18 Sudoeste 32 Sudoeste 0 902.7 0.1 24
2019-06-08 20:00:00 22.3 21 Sudoeste 38 Sudoeste 0 902.5 -0.5 22
2019-06-08 19:00:00 23 23 Sudoeste 39 Sur 0 902.4 -1.1 21
2019-06-08 18:00:00 24 24 Sudoeste 37 Sudoeste 0 902.6 -1.5 24
2019-06-08 17:00:00 23.8 27 Sur 42 Sur 0 903 -1.8 23
2019-06-08 16:00:00 24.1 13 Sudeste 33 Sur 0 903.5 -1.7 30
2019-06-08 15:00:00 22.9 10 Sudeste 33 Sudeste 0 904.1 -1.5 29
2019-06-08 14:00:00 21.9 9 Sudoeste 18 Oeste 0 904.8 -1.1 29
2019-06-08 13:00:00 20.6 8 Nordeste 14 Nordeste 0 905.2 -1.2 31
2019-06-08 12:00:00 17.5 6 Norte 17 Oeste 0 905.6 -0.7 36
2019-06-08 11:00:00 15 8 Noroeste 12 Norte 0 905.9 -0.6 43
2019-06-08 10:00:00 12.1 5 Noroeste 10 Noroeste 0 906.4 -0.1 50
2019-06-08 09:00:00 10.9 2 Oeste 5 Nordeste 0 906.3 -0.2 51
2019-06-08 08:00:00 7.3 4 Este 6 Nordeste 0 906.5 -0.2 66
2019-06-08 07:00:00 4.8 4 Este 10 Sudeste 0 906.5 0 74
2019-06-08 06:00:00 5.2 6 Sudeste 11 Este 0 906.5 -0.4 72
2019-06-08 05:00:00 5.5 4 Oeste 12 Este 0 906.7 -0.2 69
2019-06-08 04:00:00 7.7 8 Este 14 Este 0 906.5 -0.5 59
2019-06-08 03:00:00 8.1 7 Este 15 Este 0 906.9 0.1 57
2019-06-08 02:00:00 8.6 8 Este 14 Este 0 906.9 0.4 55
2019-06-08 01:00:00 9.3 10 Este 18 Este 0 907 1.2 53
2019-06-08 00:00:00 10.3 8 Este 15 Este 0 906.8 1.3 54
2019-06-07 23:00:00 11.9 5 Este 11 Este 0 906.5 1.5 47
2019-06-07 22:00:00 13.2 6 Noroeste 12 Noroeste 0 905.8 1.2 39
2019-06-07 21:00:00 15.4 11 Oeste 19 Noroeste 0 905.5 1 30
2019-06-07 20:00:00 16.4 12 Oeste 26 Noroeste 0 905 0.7 30
2019-06-07 19:00:00 16.5 9 Noroeste 27 Oeste 0 904.6 0.5 31
2019-06-07 18:00:00 16.6 13 Oeste 29 Noroeste 0 904.5 0.6 30
2019-06-07 17:00:00 15.9 12 Noroeste 31 Oeste 0 904.3 0.6 33
2019-06-07 16:00:00 14.9 8 Oeste 23 Oeste 0 904.1 0.8 38
2019-06-07 15:00:00 13.6 10 Oeste 24 Noroeste 0 903.9 1.1 41
2019-06-07 14:00:00 13.5 15 Oeste 30 Oeste 0 903.7 1.4 48
2019-06-07 13:00:00 12.4 15 Oeste 28 Sudoeste 0 903.3 1.5 50
2019-06-07 12:00:00 10.6 12 Oeste 23 Sudoeste 0 902.8 1.7 57
2019-06-07 11:00:00 9.6 12 Oeste 27 Sudoeste 0 902.3 1.9 64
2019-06-07 10:00:00 8.4 21 Sudoeste 30 Oeste 0 901.8 2.2 74
2019-06-07 09:00:00 7.2 20 Sudoeste 30 Sudoeste 0 901.1 2.2 77
2019-06-07 08:00:00 6.2 14 Sudoeste 24 Sudoeste 0 900.4 1.9 82
2019-06-07 07:00:00 6.1 14 Sudoeste 19 Sudoeste 0 899.6 2 82
2019-06-07 06:00:00 6.3 14 Sudoeste 28 Oeste 0 898.9 1.5 83
2019-06-07 05:00:00 6.9 24 Sudoeste 36 Sudoeste 0 898.5 1.7 84
2019-06-07 04:00:00 7 13 Sudoeste 26 Sur 1.6 897.6 2.4 89
2019-06-07 03:00:00 6.5 15 Sudoeste 40 Oeste 1.2 897.4 2.8 91
2019-06-07 02:00:00 7.4 19 Oeste 41 Oeste 3.2 896.8 2.5 93
2019-06-07 01:00:00 12.8 24 Sudoeste 41 Sudoeste 0.2 895.2 1.2 69
2019-06-07 00:00:00 14.6 29 Sur 51 Sur 0 894.6 0.8 48
2019-06-06 23:00:00 15.7 26 Sudoeste 45 Sur 0 894.3 0.6 39
2019-06-06 22:00:00 16.2 21 Sudoeste 44 Sudoeste 0 894 0.1 37
2019-06-06 21:00:00 17.1 31 Sudoeste 49 Sudoeste 0 893.8 -0.4 33
2019-06-06 20:00:00 19 24 Sur 55 Sur 0 893.7 -1.5 31
2019-06-06 19:00:00 19.4 30 Sur 58 Sur 0 893.9 -1.8 29
2019-06-06 18:00:00 19.6 33 Sur 60 Sur 0 894.2 -1.9 29
2019-06-06 17:00:00 19.4 32 Sur 53 Sur 0 895.2 -1.5 27
2019-06-06 16:00:00 18.8 32 Sur 54 Sur 0 895.7 -1.3 25
2019-06-06 15:00:00 19 28 Sur 50 Sudeste 0 896.1 -1.4 24
2019-06-06 14:00:00 18.3 29 Sur 49 Sur 0 896.7 -1.4 26
2019-06-06 13:00:00 17.9 24 Sudoeste 43 Sudoeste 0 897 -1.7 24
2019-06-06 12:00:00 16.9 18 Sudoeste 32 Sudoeste 0 897.5 -1.6 20
2019-06-06 11:00:00 13.5 5 Oeste 12 Sudoeste 0 898.1 -1.4 44
2019-06-06 10:00:00 10.9 6 Noroeste 14 Oeste 0 898.7 -1 54
2019-06-06 09:00:00 9.4 4 Sudoeste 9 Sur 0 899.1 -0.9 59
2019-06-06 08:00:00 6.5 2 Sudoeste 9 Sudeste 0 899.5 -0.6 70
2019-06-06 07:00:00 5.2 8 Sudeste 10 Sur 0 899.7 -0.6 72
2019-06-06 06:00:00 5.5 7 Sudeste 12 Sur 0 900 -0.6 71
2019-06-06 05:00:00 7.3 3 Oeste 8 Sur 0 900.1 -0.6 64
2019-06-06 04:00:00 8.7 6 Sudoeste 11 Sudoeste 0 900.3 -0.5 58
2019-06-06 03:00:00 9.8 8 Sudoeste 11 Sudoeste 0 900.6 -0.1 54
2019-06-06 02:00:00 9.3 6 Sudoeste 10 Sudoeste 0 900.7 0.3 56
2019-06-06 01:00:00 10.9 8 Oeste 15 Oeste 0 900.8 1 50
2019-06-06 00:00:00 11.4 6 Oeste 13 Sudoeste 0 900.7 1.3 48
2019-06-05 23:00:00 11.8 4 Oeste 17 Oeste 0 900.4 1.3 46
2019-06-05 22:00:00 12.9 10 Oeste 31 Noroeste 0 899.8 0.8 42
2019-06-05 21:00:00 14.4 12 Oeste 29 Oeste 0 899.4 0.4 34
2019-06-05 20:00:00 15.4 17 Oeste 35 Oeste 0 899.1 -0.1 32
2019-06-05 19:00:00 16.5 20 Oeste 39 Oeste 0 899 -0.2 30
2019-06-05 18:00:00 16.9 17 Oeste 40 Oeste 0 899 -0.3 29
2019-06-05 17:00:00 16 18 Oeste 39 Oeste 0 899.2 -0.6 33
2019-06-05 16:00:00 16.5 24 Oeste 42 Sudoeste 0 899.2 -0.6 32
2019-06-05 15:00:00 15.4 17 Oeste 38 Noroeste 0 899.3 -0.2 37
2019-06-05 14:00:00 14.3 17 Oeste 39 Oeste 0 899.8 0.7 46
2019-06-05 13:00:00 12 21 Oeste 36 Oeste 0 899.8 1 54
2019-06-05 12:00:00 10.8 18 Oeste 31 Oeste 0 899.5 1.4 60
2019-06-05 11:00:00 9.3 14 Oeste 34 Oeste 0 899.1 1.8 74
2019-06-05 10:00:00 7.7 17 Oeste 30 Oeste 0 898.8 2 87
2019-06-05 09:00:00 6.7 20 Oeste 39 Oeste 0 898.1 1.5 89
2019-06-05 08:00:00 7.3 9 Oeste 33 Oeste 0.6 897.3 0.5 93
2019-06-05 07:00:00 7.8 11 Oeste 30 Oeste 0 896.8 -0.1 91
2019-06-05 06:00:00 8.3 10 Oeste 20 Sudoeste 0.2 896.6 0 89
2019-06-05 05:00:00 8.6 13 Oeste 28 Oeste 0 896.8 0.4 86
2019-06-05 04:00:00 9.7 16 Oeste 43 Oeste 0 896.9 0.5 76
2019-06-05 03:00:00 12.8 20 Oeste 36 Oeste 0 896.6 -0.1 54
2019-06-05 02:00:00 13.8 12 Oeste 26 Oeste 0 896.4 -0.5 58
2019-06-05 01:00:00 14.8 9 Oeste 15 Noroeste 0 896.4 -0.6 61
2019-06-05 00:00:00 14.8 3 Sudoeste 10 Noroeste 0 896.7 -0.4 63
2019-06-04 23:00:00 15.6 6 Noroeste 15 Oeste 0 896.9 0.1 61
2019-06-04 22:00:00 16.6 8 Oeste 23 Oeste 0 897 0.9 58
2019-06-04 21:00:00 17.8 15 Oeste 32 Oeste 0 897.1 0.7 54
2019-06-04 20:00:00 19 21 Oeste 49 Oeste 0 896.8 0.1 49
2019-06-04 19:00:00 22 13 Oeste 27 Oeste 0 896.1 -0.6 37
2019-06-04 18:00:00 22.5 16 Oeste 31 Oeste 0 896.4 -0.6 36
2019-06-04 17:00:00 23.4 15 Oeste 35 Oeste 0 896.7 -0.9 35
2019-06-04 16:00:00 23.5 12 Noroeste 28 Oeste 0 896.7 -1.7 35
2019-06-04 15:00:00 24.1 14 Oeste 26 Oeste 0 897 -1.8 36
2019-06-04 14:00:00 22.7 12 Oeste 25 Oeste 0 897.6 -1.4 42
2019-06-04 13:00:00 21.4 10 Oeste 20 Oeste 0 898.4 -1 48
2019-06-04 12:00:00 19.5 8 Oeste 18 Oeste 0 898.8 -0.6 56
2019-06-04 11:00:00 17.8 5 Oeste 18 Oeste 0 899 -0.6 63
2019-06-04 10:00:00 15.4 9 Oeste 17 Oeste 0 899.4 0.6 71
2019-06-04 09:00:00 13.9 6 Oeste 13 Sudoeste 0 899.4 1.1 78
2019-06-04 08:00:00 12.4 7 Sudoeste 14 Oeste 0 899.6 0.6 80
2019-06-04 07:00:00 12.4 9 Oeste 14 Noroeste 0 898.8 -0.7 66
2019-06-04 06:00:00 13.3 4 Este 10 Sudeste 0 898.3 -1.9 56
2019-06-04 05:00:00 14.9 4 Este 7 Sudeste 0 899 -1.8 54
2019-06-04 04:00:00 15.5 2 Este 13 Sur 0 899.5 -1.6 52
2019-06-04 03:00:00 16.8 10 Sudoeste 19 Oeste 0 900.2 -1.1 49
2019-06-04 02:00:00 19 16 Sudoeste 26 Oeste 0 900.8 -0.6 34
2019-06-04 01:00:00 18.2 10 Sur 16 Sur 0 901.1 0.2 30
2019-06-04 00:00:00 19.5 7 Sudeste 15 Sur 0 901.3 0.4 27
2019-06-03 23:00:00 20.6 14 Sur 24 Sur 0 901.4 0.6 26
2019-06-03 22:00:00 23 13 Sur 29 Sudoeste 0 900.9 0 21
2019-06-03 21:00:00 25.9 22 Sudoeste 36 Sudoeste 0 900.9 -0.1 17
2019-06-03 20:00:00 27.4 26 Sudoeste 46 Sudoeste 0 900.8 -0.2 15
2019-06-03 19:00:00 28.5 31 Sudoeste 52 Sudoeste 0 900.9 -0.5 15
2019-06-03 18:00:00 29.8 32 Sudoeste 56 Sudoeste 0 901 -1.2 16
2019-06-03 17:00:00 30.4 30 Oeste 45 Oeste 0 901 -1.7 11
2019-06-03 16:00:00 30.4 13 Sudoeste 57 Oeste 0 901.4 -1.9 13
2019-06-03 15:00:00 29.9 24 Sudoeste 39 Sudoeste 0 902.2 -1.5 18
2019-06-03 14:00:00 27.3 12 Oeste 24 Noroeste 0 902.7 -1.2 20
2019-06-03 13:00:00 27 9 Oeste 21 Oeste 0 903.3 -1.1 25
2019-06-03 12:00:00 24.3 5 Noroeste 12 Oeste 0 903.7 -0.5 30
2019-06-03 11:00:00 22.1 6 Norte 11 Norte 0 903.9 0.2 33
2019-06-03 10:00:00 21.5 3 Este 9 Noroeste 0 904.4 0.5 33
2019-06-03 09:00:00 18.4 3 Oeste 6 Noroeste 0 904.2 0.2 45
2019-06-03 08:00:00 15.9 6 Este 11 Oeste 0 903.7 -0.5 50
2019-06-03 07:00:00 15.3 5 Nordeste 8 Nordeste 0 903.9 -0.3 48
2019-06-03 06:00:00 15.3 4 Este 8 Este 0 904 -0.6 47
2019-06-03 05:00:00 16 5 Este 6 Este 0 904.2 -0.8 45
2019-06-03 04:00:00 16.6 3 Sudeste 12 Sudeste 0 904.2 -0.5 41
2019-06-03 03:00:00 16.8 8 Este 12 Sudeste 0 904.6 -0.1 41
2019-06-03 02:00:00 16.5 10 Sur 25 Sudoeste 0 905 0.3 42
2019-06-03 01:00:00 19 5 Este 9 Este 0 904.7 0.5 38
2019-06-03 00:00:00 20.7 9 Este 14 Nordeste 0 904.7 0.9 38
2019-06-02 23:00:00 22 7 Nordeste 13 Este 0 904.7 1.1 38
2019-06-02 22:00:00 25 3 Noroeste 6 Oeste 0 904.2 1.1 24
2019-06-02 21:00:00 26 4 Noroeste 24 Noroeste 0 903.8 0.6 22
2019-06-02 20:00:00 26.8 18 Sudoeste 49 Sudoeste 0 903.6 0.2 22
2019-06-02 19:00:00 28.4 14 Noroeste 22 Noroeste 0 903.1 -0.7 19
2019-06-02 18:00:00 29.2 7 Noroeste 17 Sur 0 903.2 -1 20
2019-06-02 17:00:00 29.6 8 Sur 21 Sudoeste 0 903.4 -1.6 20
2019-06-02 16:00:00 29.9 6 Oeste 24 Noroeste 0 903.8 -1.7 20
2019-06-02 15:00:00 30.5 9 Oeste 33 Sudoeste 0 904.2 -1.5 18
2019-06-02 14:00:00 29.6 9 Oeste 27 Oeste 0 905 -0.9 21
2019-06-02 13:00:00 28.9 9 Oeste 22 Oeste 0 905.5 -0.3 22
2019-06-02 12:00:00 27.5 9 Oeste 17 Oeste 0 905.7 0 24
2019-06-02 11:00:00 25.9 6 Sudoeste 13 Oeste 0 905.9 0.3 29
2019-06-02 10:00:00 24.1 6 Sudoeste 11 Sudoeste 0 905.8 0.4 31
2019-06-02 09:00:00 21.7 4 Nordeste 8 Este 0 905.7 0.5 38
2019-06-02 08:00:00 17.7 4 Este 9 Nordeste 0 905.6 0.4 45
2019-06-02 07:00:00 15.9 5 Este 14 Sudeste 0 905.4 0.1 48
2019-06-02 06:00:00 17.2 12 Sudeste 18 Sudeste 0 905.2 -0.3 43
2019-06-02 05:00:00 17.6 13 Sur 18 Sudoeste 0 905.2 -0.3 39
2019-06-02 04:00:00 19.6 13 Sudoeste 24 Sudoeste 0 905.3 -0.1 35
2019-06-02 03:00:00 20.3 15 Sudoeste 23 Sudoeste 0 905.5 -0.1 33
2019-06-02 02:00:00 19.3 12 Sur 16 Sur 0 905.5 0 34
2019-06-02 01:00:00 20 5 Este 13 Este 0 905.4 0.5 33
2019-06-02 00:00:00 21.4 5 Este 14 Este 0 905.6 1.1 30
2019-06-01 23:00:00 22.7 6 Nordeste 14 Nordeste 0 905.5 1.1 28
2019-06-01 22:00:00 25.3 7 Sudoeste 14 Sudoeste 0 904.9 0.4 19
2019-06-01 21:00:00 28.7 6 Noroeste 17 Oeste 0 904.5 -0.2 13
2019-06-01 20:00:00 30 6 Noroeste 19 Oeste 0 904.4 -0.8 14
2019-06-01 19:00:00 30.9 5 Sudoeste 21 Oeste 0 904.5 -1.2 14
2019-06-01 18:00:00 31.2 9 Sudoeste 26 Sudoeste 0 904.7 -1.5 14
2019-06-01 17:00:00 30.5 5 Norte 27 Noroeste 0 905.2 -1.6 12
2019-06-01 16:00:00 30.6 5 Este 23 Oeste 0 905.7 -1.5 14
2019-06-01 15:00:00 29.9 8 Nordeste 21 Oeste 0 906.2 -1.1 15
2019-06-01 14:00:00 29 7 Noroeste 22 Sudoeste 0 906.8 -0.5 15
2019-06-01 13:00:00 28.4 8 Oeste 22 Noroeste 0 907.2 -0.1 18
2019-06-01 12:00:00 27.4 9 Oeste 18 Oeste 0 907.3 0.3 19
2019-06-01 11:00:00 26.1 6 Oeste 14 Oeste 0 907.3 0.4 25
2019-06-01 10:00:00 24.4 4 Oeste 9 Oeste 0 907.3 0.8 27
2019-06-01 09:00:00 22 4 Nordeste 12 Este 0 907 0.7 32
2019-06-01 08:00:00 18.2 8 Este 10 Este 0 906.9 0.4 36
2019-06-01 07:00:00 16 6 Este 10 Nordeste 0 906.5 -0.1 39
2019-06-01 06:00:00 16.3 6 Nordeste 10 Este 0 906.3 -0.5 38
2019-06-01 05:00:00 16.4 6 Este 13 Sudeste 0 906.5 -0.6 37
2019-06-01 04:00:00 16.3 5 Este 9 Este 0 906.6 -0.7 39
2019-06-01 03:00:00 16.7 6 Este 13 Este 0 906.8 -0.7 38
2019-06-01 02:00:00 17.1 7 Este 10 Este 0 907.1 -0.4 37
2019-06-01 01:00:00 18.1 8 Este 13 Este 0 907.3 0.4 36
2019-06-01 00:00:00 19 7 Este 11 Este 0 907.5 0.8 35
2019-05-31 23:00:00 20.3 6 Este 15 Sudeste 0 907.5 0.9 32
2019-05-31 22:00:00 25.5 3 Nordeste 8 Norte 0 906.9 0.1 15
2019-05-31 21:00:00 27.7 5 Norte 13 Norte 0 906.7 -0.3 12
2019-05-31 20:00:00 28.5 6 Norte 15 Noroeste 0 906.6 -0.8 13
2019-05-31 19:00:00 29.2 7 Noroeste 28 Oeste 0 906.8 -1.1 12
2019-05-31 18:00:00 29.4 12 Oeste 23 Noroeste 0 907 -1.3 13
2019-05-31 17:00:00 29.3 8 Oeste 23 Oeste 0 907.4 -1.4 15
2019-05-31 16:00:00 28.7 10 Oeste 20 Oeste 0 907.9 -1.3 15
2019-05-31 15:00:00 27.8 12 Oeste 22 Oeste 0 908.3 -1 15
2019-05-31 14:00:00 27.2 6 Oeste 19 Sudoeste 0 908.8 -0.6 17
2019-05-31 13:00:00 26.6 9 Sur 19 Noroeste 0 909.2 -0.3 21
2019-05-31 12:00:00 25.8 5 Oeste 15 Noroeste 0 909.3 -0.2 23
2019-05-31 11:00:00 23.9 6 Nordeste 14 Nordeste 0 909.4 0.1 25
2019-05-31 10:00:00 21.9 4 Este 9 Este 0 909.5 0.6 30
2019-05-31 09:00:00 18.9 3 Este 5 Nordeste 0 909.5 0.6 35
2019-05-31 08:00:00 15.6 4 Este 6 Nordeste 0 909.3 0.2 42
2019-05-31 07:00:00 14 3 Este 10 Sudeste 0 908.9 -0.2 42
2019-05-31 06:00:00 14.7 8 Sudeste 14 Sudeste 0 908.9 -0.7 39
2019-05-31 05:00:00 15.3 11 Sudeste 18 Sudeste 0 909.1 -0.8 37
2019-05-31 04:00:00 15.1 12 Sudeste 16 Sudeste 0 909.1 -0.8 36
2019-05-31 03:00:00 16.2 10 Este 15 Este 0 909.6 -0.4 33
2019-05-31 02:00:00 16 6 Nordeste 15 Sur 0 909.9 0 36
2019-05-31 01:00:00 17.5 17 Sudeste 21 Sudeste 0 909.9 0.9 30
2019-05-31 00:00:00 17.9 9 Sudeste 23 Este 0 910 1.4 34
2019-05-30 23:00:00 19.8 13 Este 23 Nordeste 0 909.9 1.5 31
2019-05-30 22:00:00 22.3 10 Nordeste 24 Nordeste 0 909 0.5 27
2019-05-30 21:00:00 25.2 9 Nordeste 21 Nordeste 0 908.6 -0.1 18
2019-05-30 20:00:00 26.2 13 Norte 24 Nordeste 0 908.4 -0.7 16
2019-05-30 19:00:00 26.8 10 Norte 25 Nordeste 0 908.5 -0.9 16
2019-05-30 18:00:00 27.4 9 Norte 28 Norte 0 908.7 -1.1 16
2019-05-30 17:00:00 26.7 13 Norte 26 Noroeste 0 909.1 -1.1 17
2019-05-30 16:00:00 26.7 11 Nordeste 29 Nordeste 0 909.4 -1 15
2019-05-30 15:00:00 25.9 13 Norte 30 Nordeste 0 909.8 -1 18
2019-05-30 14:00:00 24.8 11 Norte 26 Nordeste 0 910.2 -0.8 21
2019-05-30 13:00:00 23.3 7 Norte 22 Norte 0 910.4 -0.7 29
2019-05-30 12:00:00 20.9 7 Sudoeste 14 Sudoeste 0 910.8 -0.4 40
2019-05-30 11:00:00 18.7 4 Nordeste 11 Nordeste 0 911 0.3 43
2019-05-30 10:00:00 15.5 4 Sudoeste 8 Oeste 0 911.1 0.9 52
2019-05-30 09:00:00 12.9 3 Oeste 6 Oeste 0 911.2 1 57
2019-05-30 08:00:00 10 4 Nordeste 9 Nordeste 0 910.7 0.5 61
2019-05-30 07:00:00 8 5 Este 10 Este 0 910.2 -0.1 70
2019-05-30 06:00:00 7.9 5 Este 7 Este 0 910.2 -0.4 71
2019-05-30 05:00:00 8.5 3 Este 7 Este 0 910.2 -0.6 70
2019-05-30 04:00:00 9.2 4 Este 8 Sudeste 0 910.3 -0.3 70
2019-05-30 03:00:00 9.4 3 Este 10 Sudeste 0 910.6 0 70
2019-05-30 02:00:00 10.5 4 Sudoeste 14 Este 0 910.8 0.3 65
2019-05-30 01:00:00 11.9 11 Este 14 Este 0 910.6 0.8 61
2019-05-30 00:00:00 13.2 9 Nordeste 12 Este 0 910.6 1.2 57
2019-05-29 23:00:00 14.7 6 Nordeste 18 Nordeste 0 910.5 1.6 51
2019-05-29 22:00:00 16.3 7 Nordeste 20 Norte 0 909.8 1.1 45
2019-05-29 21:00:00 18.6 9 Norte 28 Norte 0 909.4 0.7 37
2019-05-29 20:00:00 19.6 14 Norte 32 Nordeste 0 908.9 0.2 38
2019-05-29 19:00:00 20.7 11 Norte 31 Nordeste 0 908.7 -0.2 34
2019-05-29 18:00:00 21 14 Norte 30 Norte 0 908.7 -0.3 34
2019-05-29 17:00:00 20.5 13 Norte 29 Noroeste 0 908.7 -0.4 37
2019-05-29 16:00:00 20.7 13 Nordeste 26 Nordeste 0 908.9 -0.6 36
2019-05-29 15:00:00 19.7 10 Norte 29 Norte 0 909 -0.6 39
2019-05-29 14:00:00 18.6 14 Nordeste 27 Nordeste 0 909.1 -0.4 41
2019-05-29 13:00:00 17 12 Nordeste 26 Norte 0 909.5 0 46
2019-05-29 12:00:00 15.5 12 Nordeste 28 Norte 0 909.6 0.4 45
2019-05-29 11:00:00 14.2 15 Nordeste 27 Nordeste 0 909.5 0.6 48
2019-05-29 10:00:00 12.3 14 Norte 31 Nordeste 0 909.5 1.1 52
2019-05-29 09:00:00 10.2 10 Nordeste 23 Nordeste 0 909.2 1 59
2019-05-29 08:00:00 6.1 5 Sur 6 Sur 0 908.9 0.9 75
2019-05-29 07:00:00 4.3 4 Sur 10 Sudoeste 0 908.4 0.5 80
2019-05-29 06:00:00 5 7 Sudoeste 10 Sudoeste 0 908.2 0.5 78
2019-05-29 05:00:00 6.5 4 Oeste 9 Norte 0 908 0.3 71
2019-05-29 04:00:00 7.6 5 Norte 18 Norte 0 907.9 0.5 67
2019-05-29 03:00:00 8.1 6 Norte 18 Norte 0 907.7 1 65
2019-05-29 02:00:00 8.6 4 Oeste 23 Nordeste 0 907.7 1.4 63
2019-05-29 01:00:00 10.2 12 Nordeste 31 Nordeste 0 907.4 1.8 56
2019-05-29 00:00:00 11.4 10 Nordeste 25 Este 0 906.7 1.6 53
2019-05-28 23:00:00 12.6 16 Nordeste 33 Nordeste 0 906.3 1.5 51
2019-05-28 22:00:00 14.4 13 Nordeste 25 Nordeste 0 905.6 0.9 46
2019-05-28 21:00:00 16.2 16 Nordeste 30 Nordeste 0 905.1 0.6 41
2019-05-28 20:00:00 17.3 17 Nordeste 33 Nordeste 0 904.8 0.8 36
2019-05-28 19:00:00 18.1 18 Nordeste 39 Nordeste 0 904.7 0.6 35
2019-05-28 18:00:00 18.6 16 Norte 35 Norte 0 904.5 0.3 34
2019-05-28 17:00:00 20.1 11 Norte 26 Noroeste 0 904 -0.4 30
2019-05-28 16:00:00 19.4 14 Norte 27 Noroeste 0 904.1 -0.3 28
2019-05-28 15:00:00 18.8 11 Noroeste 26 Noroeste 0 904.2 -0.3 30
2019-05-28 14:00:00 17.4 9 Norte 24 Nordeste 0 904.4 0 32
2019-05-28 13:00:00 16.6 10 Noroeste 19 Nordeste 0 904.4 0.2 33
2019-05-28 12:00:00 15.6 12 Nordeste 28 Este 0 904.5 0.7 39
2019-05-28 11:00:00 12.4 5 Noroeste 15 Noroeste 0 904.4 1.2 60
2019-05-28 10:00:00 9.5 3 Noroeste 9 Oeste 0 904.2 1.3 78
2019-05-28 09:00:00 7.8 4 Sudoeste 9 Noroeste 0 903.8 1.8 86
2019-05-28 08:00:00 6.9 5 Sudoeste 12 Sur 0 903.2 1.2 87
2019-05-28 07:00:00 6.3 7 Sur 11 Sudoeste 0 902.9 1 89
2019-05-28 06:00:00 7.2 7 Sudoeste 14 Sudoeste 0 902 0.5 89
2019-05-28 05:00:00 7.9 9 Sudoeste 13 Sudoeste 0 902 0.5 88
2019-05-28 04:00:00 9.3 10 Sudoeste 15 Sudoeste 0 901.9 0.6 83
2019-05-28 03:00:00 11.8 8 Sudoeste 16 Nordeste 0 901.5 0.3 70
2019-05-28 02:00:00 13.1 10 Nordeste 26 Este 0 901.5 0.6 65
2019-05-28 01:00:00 14.2 12 Este 24 Nordeste 0 901.3 0.8 62
2019-05-28 00:00:00 15.6 12 Este 28 Este 0 901.2 0.8 56
2019-05-27 23:00:00 16.8 19 Nordeste 35 Nordeste 0 900.9 0.9 51
2019-05-27 22:00:00 18.5 10 Nordeste 22 Nordeste 0 900.5 0.5 46
2019-05-27 21:00:00 20.2 13 Nordeste 25 Nordeste 0 900.4 0.1 41
2019-05-27 20:00:00 21.3 9 Norte 23 Norte 0 900 -0.5 38
2019-05-27 19:00:00 23 8 Noroeste 28 Nordeste 0 900 -0.9 33
2019-05-27 18:00:00 22 10 Norte 28 Noroeste 0 900.3 -1.1 35
2019-05-27 17:00:00 22.2 13 Norte 32 Norte 0 900.5 -1.3 36
2019-05-27 16:00:00 22.2 10 Norte 27 Noroeste 0 900.9 -1.5 36
2019-05-27 15:00:00 22.3 10 Noroeste 26 Oeste 0 901.4 -1.1 37
2019-05-27 14:00:00 21.4 8 Norte 25 Oeste 0 901.8 -1 38
2019-05-27 13:00:00 20.5 10 Noroeste 22 Oeste 0 902.4 -0.6 40
2019-05-27 12:00:00 19.5 9 Norte 18 Nordeste 0 902.5 -0.3 43
2019-05-27 11:00:00 17.7 12 Norte 21 Norte 0 902.8 -0.1 48
2019-05-27 10:00:00 17.1 4 Noroeste 10 Nordeste 0 903 0.3 53
2019-05-27 09:00:00 14.5 4 Este 8 Este 0 902.8 0.3 61
2019-05-27 08:00:00 11.7 2 Este 9 Sudeste 0 902.9 0.2 69
2019-05-27 07:00:00 9.8 5 Este 8 Sudeste 0 902.7 -0.2 75
2019-05-27 06:00:00 9.7 8 Sur 13 Sur 0 902.5 -0.9 76
2019-05-27 05:00:00 10 4 Este 6 Este 0 902.7 -1.2 73
2019-05-27 04:00:00 10.3 0 Calma 9 Sudeste 0 902.9 -1.3 73
2019-05-27 03:00:00 10.7 6 Nordeste 10 Sur 0 903.4 -1 69
2019-05-27 02:00:00 11.7 4 Sudeste 10 Este 0 903.9 -0.5 66
2019-05-27 01:00:00 13.1 6 Este 10 Este 0 904.2 0.2 62
2019-05-27 00:00:00 14.3 4 Este 13 Este 0 904.4 0.2 58
2019-05-26 23:00:00 15.6 8 Este 14 Nordeste 0 904.4 0.2 55
2019-05-26 22:00:00 17.1 10 Nordeste 21 Nordeste 0 904 -0.2 50
2019-05-26 21:00:00 19.2 9 Nordeste 26 Nordeste 0 904.2 -0.1 42
2019-05-26 20:00:00 20.2 17 Norte 33 Norte 0 904.2 -0.6 38
2019-05-26 19:00:00 20.9 15 Norte 35 Noroeste 0 904.2 -1 37
2019-05-26 18:00:00 21.2 16 Nordeste 39 Nordeste 0 904.3 -1.1 37
2019-05-26 17:00:00 21.1 15 Norte 32 Noroeste 0 904.8 -1.2 39
2019-05-26 16:00:00 20.5 14 Norte 31 Norte 0 905.2 -1.1 43
2019-05-26 15:00:00 19.4 15 Norte 32 Nordeste 0 905.4 -1.2 43
2019-05-26 14:00:00 18.3 12 Norte 26 Norte 0 906 -0.7 45
2019-05-26 13:00:00 16.9 6 Nordeste 24 Nordeste 0 906.3 -0.7 51
2019-05-26 12:00:00 15 9 Norte 19 Nordeste 0 906.6 -0.1 53
2019-05-26 11:00:00 13.1 5 Norte 14 Noroeste 0 906.7 -0.1 58
2019-05-26 10:00:00 10.5 4 Oeste 13 Oeste 0 907 0.4 72
2019-05-26 09:00:00 7.7 5 Oeste 8 Oeste 0 906.7 0.3 78
2019-05-26 08:00:00 6.4 3 Sudeste 4 Sudeste 0 906.8 0.3 79
2019-05-26 07:00:00 5.3 0 Calma 9 Este 0 906.6 0 81
2019-05-26 06:00:00 5.5 6 Este 12 Este 0 906.4 -0.3 80
2019-05-26 05:00:00 6.4 3 Norte 8 Sur 0 906.5 -0.4 81
2019-05-26 04:00:00 7.4 2 Norte 7 Norte 0 906.6 -0.2 78
2019-05-26 03:00:00 8.1 4 Nordeste 15 Nordeste 0 906.7 -0.2 76
2019-05-26 02:00:00 9.1 9 Nordeste 16 Nordeste 0 906.9 0 74
2019-05-26 01:00:00 9.9 3 Oeste 15 Nordeste 0 906.8 0.5 71
2019-05-26 00:00:00 11.1 9 Nordeste 19 Nordeste 0 906.9 1 65